sensor_id;sensor_type;location;lat;lon;timestamp;pressure;altitude;pressure_sealevel;temperature;humidity
68807;BME280;55800;54.272;18.558;2022-12-24T00:01:51;99993.41;;;-0.26;73.81
68807;BME280;55800;54.272;18.558;2022-12-24T00:04:20;100010.84;;;-0.19;73.53
68807;BME280;55800;54.272;18.558;2022-12-24T00:06:49;100011.72;;;-0.18;73.29
68807;BME280;55800;54.272;18.558;2022-12-24T00:09:19;100006.50;;;-0.23;73.22
68807;BME280;55800;54.272;18.558;2022-12-24T00:11:48;100009.19;;;-0.26;73.48
68807;BME280;55800;54.272;18.558;2022-12-24T00:14:18;100007.41;;;-0.27;73.61
68807;BME280;55800;54.272;18.558;2022-12-24T00:16:48;100009.25;;;-0.36;73.84
68807;BME280;55800;54.272;18.558;2022-12-24T00:19:17;100000.56;;;-0.43;74.56
68807;BME280;55800;54.272;18.558;2022-12-24T00:21:46;100002.31;;;-0.45;74.42
68807;BME280;55800;54.272;18.558;2022-12-24T00:24:16;100003.16;;;-0.41;74.07
68807;BME280;55800;54.272;18.558;2022-12-24T00:26:45;100010.16;;;-0.39;74.16
68807;BME280;55800;54.272;18.558;2022-12-24T00:29:15;100009.28;;;-0.42;73.98
68807;BME280;55800;54.272;18.558;2022-12-24T00:31:45;100007.59;;;-0.49;74.31
68807;BME280;55800;54.272;18.558;2022-12-24T00:34:14;100010.22;;;-0.48;74.01
68807;BME280;55800;54.272;18.558;2022-12-24T00:36:44;100016.31;;;-0.46;73.93
68807;BME280;55800;54.272;18.558;2022-12-24T00:39:13;100006.72;;;-0.53;73.82
68807;BME280;55800;54.272;18.558;2022-12-24T00:41:42;99999.72;;;-0.49;73.54
68807;BME280;55800;54.272;18.558;2022-12-24T00:44:11;100000.66;;;-0.61;73.85
68807;BME280;55800;54.272;18.558;2022-12-24T00:46:41;100006.81;;;-0.62;73.63
68807;BME280;55800;54.272;18.558;2022-12-24T00:49:12;100011.16;;;-0.61;73.71
68807;BME280;55800;54.272;18.558;2022-12-24T00:51:41;100019.09;;;-0.67;73.85
68807;BME280;55800;54.272;18.558;2022-12-24T00:54:10;100015.59;;;-0.66;74.07
68807;BME280;55800;54.272;18.558;2022-12-24T00:56:41;100017.38;;;-0.68;73.73
68807;BME280;55800;54.272;18.558;2022-12-24T00:59:10;100027.88;;;-0.72;73.57
68807;BME280;55800;54.272;18.558;2022-12-24T01:01:39;100020.06;;;-0.78;73.84
68807;BME280;55800;54.272;18.558;2022-12-24T01:04:10;100027.94;;;-0.83;73.86
68807;BME280;55800;54.272;18.558;2022-12-24T01:06:57;100035.75;;;-0.72;73.31
68807;BME280;55800;54.272;18.558;2022-12-24T01:09:26;100036.59;;;-0.72;73.18
68807;BME280;55800;54.272;18.558;2022-12-24T01:11:56;100041.84;;;-0.72;73.26
68807;BME280;55800;54.272;18.558;2022-12-24T01:14:25;100047.09;;;-0.72;73.07
68807;BME280;55800;54.272;18.558;2022-12-24T01:16:54;100045.38;;;-0.76;73.12
68807;BME280;55800;54.272;18.558;2022-12-24T01:19:25;100040.16;;;-0.79;72.92
68807;BME280;55800;54.272;18.558;2022-12-24T01:21:54;100038.41;;;-0.80;73.01
68807;BME280;55800;54.272;18.558;2022-12-24T01:24:23;100054.22;;;-0.89;73.09
68807;BME280;55800;54.272;18.558;2022-12-24T01:26:52;100038.53;;;-0.98;73.84
68807;BME280;55800;54.272;18.558;2022-12-24T01:29:22;100045.53;;;-1.00;73.79
68807;BME280;55800;54.272;18.558;2022-12-24T01:31:51;100047.28;;;-1.02;73.60
68807;BME280;55800;54.272;18.558;2022-12-24T01:34:20;100043.81;;;-1.04;73.47
68807;BME280;55800;54.272;18.558;2022-12-24T01:36:51;100047.31;;;-1.08;73.64
68807;BME280;55800;54.272;18.558;2022-12-24T01:39:20;100062.16;;;-1.10;73.67
68807;BME280;55800;54.272;18.558;2022-12-24T01:41:49;100071.78;;;-1.12;73.66
68807;BME280;55800;54.272;18.558;2022-12-24T01:44:40;100064.78;;;-1.10;73.74
68807;BME280;55800;54.272;18.558;2022-12-24T01:47:13;100063.09;;;-1.17;73.68
68807;BME280;55800;54.272;18.558;2022-12-24T01:49:47;100067.44;;;-1.21;74.39
68807;BME280;55800;54.272;18.558;2022-12-24T01:52:23;100070.97;;;-1.19;74.22
68807;BME280;55800;54.272;18.558;2022-12-24T01:54:55;100071.84;;;-1.24;74.25
68807;BME280;55800;54.272;18.558;2022-12-24T01:57:28;100088.47;;;-1.24;74.12
68807;BME280;55800;54.272;18.558;2022-12-24T02:00:01;100080.59;;;-1.28;74.03
68807;BME280;55800;54.272;18.558;2022-12-24T02:02:34;100075.34;;;-1.28;74.01
68807;BME280;55800;54.272;18.558;2022-12-24T02:05:07;100090.19;;;-1.21;73.83
68807;BME280;55800;54.272;18.558;2022-12-24T02:07:39;100086.72;;;-1.28;74.05
68807;BME280;55800;54.272;18.558;2022-12-24T02:10:11;100084.09;;;-1.35;75.14
68807;BME280;55800;54.272;18.558;2022-12-24T02:12:42;100085.84;;;-1.33;75.01
68807;BME280;55800;54.272;18.558;2022-12-24T02:15:16;100091.97;;;-1.32;74.92
68807;BME280;55800;54.272;18.558;2022-12-24T02:17:52;100084.13;;;-1.34;75.17
68807;BME280;55800;54.272;18.558;2022-12-24T02:20:56;100089.34;;;-1.32;74.88
68807;BME280;55800;54.272;18.558;2022-12-24T02:24:05;100087.63;;;-1.36;74.74
68807;BME280;55800;54.272;18.558;2022-12-24T02:26:59;100082.38;;;-1.36;74.61
68807;BME280;55800;54.272;18.558;2022-12-24T02:32:40;100098.13;;;-1.42;74.40
68807;BME280;55800;54.272;18.558;2022-12-24T02:35:17;100098.13;;;-1.42;74.83
68807;BME280;55800;54.272;18.558;2022-12-24T02:37:49;100105.97;;;-1.41;74.80
68807;BME280;55800;54.272;18.558;2022-12-24T02:40:22;100098.09;;;-1.39;74.54
68807;BME280;55800;54.272;18.558;2022-12-24T02:42:56;100104.22;;;-1.40;74.78
68807;BME280;55800;54.272;18.558;2022-12-24T02:45:29;100109.47;;;-1.40;74.66
68807;BME280;55800;54.272;18.558;2022-12-24T02:48:01;100112.94;;;-1.40;75.25
68807;BME280;55800;54.272;18.558;2022-12-24T02:50:30;100112.09;;;-1.36;74.76
68807;BME280;55800;54.272;18.558;2022-12-24T02:52:59;100096.31;;;-1.31;74.84
68807;BME280;55800;54.272;18.558;2022-12-24T02:55:37;100113.81;;;-1.30;74.85
68807;BME280;55800;54.272;18.558;2022-12-24T02:58:19;100117.31;;;-1.30;75.28
68807;BME280;55800;54.272;18.558;2022-12-24T03:00:59;100112.03;;;-1.22;75.05
68807;BME280;55800;54.272;18.558;2022-12-24T03:03:56;100114.63;;;-1.16;75.06
68807;BME280;55800;54.272;18.558;2022-12-24T03:06:37;100112.03;;;-1.16;75.26
68807;BME280;55800;54.272;18.558;2022-12-24T03:09:13;100120.78;;;-1.13;75.45
68807;BME280;55800;54.272;18.558;2022-12-24T03:11:49;100124.25;;;-1.09;75.54
68807;BME280;55800;54.272;18.558;2022-12-24T03:14:22;100119.88;;;-1.07;75.56
68807;BME280;55800;54.272;18.558;2022-12-24T03:16:53;100126.84;;;-1.00;75.35
68807;BME280;55800;54.272;18.558;2022-12-24T03:19:24;100125.06;;;-0.97;75.71
68807;BME280;55800;54.272;18.558;2022-12-24T03:21:56;100125.94;;;-0.93;75.56
68807;BME280;55800;54.272;18.558;2022-12-24T03:24:27;100131.19;;;-0.87;75.75
68807;BME280;55800;54.272;18.558;2022-12-24T03:26:56;100129.41;;;-0.85;75.68
68807;BME280;55800;54.272;18.558;2022-12-24T03:29:27;100138.13;;;-0.80;75.47
68807;BME280;55800;54.272;18.558;2022-12-24T03:32:00;100131.13;;;-0.75;75.35
68807;BME280;55800;54.272;18.558;2022-12-24T03:34:31;100143.34;;;-0.71;75.41
68807;BME280;55800;54.272;18.558;2022-12-24T03:37:01;100136.34;;;-0.66;75.29
68807;BME280;55800;54.272;18.558;2022-12-24T03:39:30;100139.81;;;-0.67;75.95
68807;BME280;55800;54.272;18.558;2022-12-24T03:42:00;100147.69;;;-0.64;75.55
68807;BME280;55800;54.272;18.558;2022-12-24T03:44:29;100152.94;;;-0.62;75.71
68807;BME280;55800;54.272;18.558;2022-12-24T03:46:58;100155.53;;;-0.58;75.75
68807;BME280;55800;54.272;18.558;2022-12-24T03:49:27;100162.50;;;-0.48;75.08
68807;BME280;55800;54.272;18.558;2022-12-24T03:51:58;100159.84;;;-0.46;74.73
68807;BME280;55800;54.272;18.558;2022-12-24T03:54:27;100159.00;;;-0.47;74.99
68807;BME280;55800;54.272;18.558;2022-12-24T03:56:56;100162.50;;;-0.45;74.35
68807;BME280;55800;54.272;18.558;2022-12-24T03:59:25;100161.59;;;-0.48;74.42
68807;BME280;55800;54.272;18.558;2022-12-24T04:01:55;100158.94;;;-0.42;73.94
68807;BME280;55800;54.272;18.558;2022-12-24T04:04:25;100164.25;;;-0.47;74.71
68807;BME280;55800;54.272;18.558;2022-12-24T04:06:54;100167.75;;;-0.45;73.99
68807;BME280;55800;54.272;18.558;2022-12-24T04:09:25;100160.75;;;-0.52;74.43
68807;BME280;55800;54.272;18.558;2022-12-24T04:11:54;100164.25;;;-0.53;74.20
68807;BME280;55800;54.272;18.558;2022-12-24T04:14:23;100165.16;;;-0.57;74.56
68807;BME280;55800;54.272;18.558;2022-12-24T04:16:53;100176.56;;;-0.65;74.96
68807;BME280;55800;54.272;18.558;2022-12-24T04:19:22;100167.81;;;-0.63;74.38
68807;BME280;55800;54.272;18.558;2022-12-24T04:21:51;100174.81;;;-0.65;74.06
68807;BME280;55800;54.272;18.558;2022-12-24T04:24:20;100173.94;;;-0.70;74.01
68807;BME280;55800;54.272;18.558;2022-12-24T04:26:51;100177.47;;;-0.68;73.79
68807;BME280;55800;54.272;18.558;2022-12-24T04:29:20;100175.75;;;-0.76;73.65
68807;BME280;55800;54.272;18.558;2022-12-24T04:31:49;100180.13;;;-0.85;74.18
68807;BME280;55800;54.272;18.558;2022-12-24T04:34:18;100171.41;;;-0.88;74.18
68807;BME280;55800;54.272;18.558;2022-12-24T04:36:48;100175.81;;;-0.96;74.32
68807;BME280;55800;54.272;18.558;2022-12-24T04:39:17;100174.94;;;-1.01;74.23
68807;BME280;55800;54.272;18.558;2022-12-24T04:41:46;100188.94;;;-1.01;74.43
68807;BME280;55800;54.272;18.558;2022-12-24T04:44:17;100177.59;;;-1.09;74.44
68807;BME280;55800;54.272;18.558;2022-12-24T04:46:46;100174.94;;;-1.07;74.16
68807;BME280;55800;54.272;18.558;2022-12-24T04:49:15;100176.72;;;-1.09;74.29
68807;BME280;55800;54.272;18.558;2022-12-24T04:51:45;100182.84;;;-1.09;74.11
68807;BME280;55800;54.272;18.558;2022-12-24T04:54:14;100178.47;;;-1.13;74.18
68807;BME280;55800;54.272;18.558;2022-12-24T04:56:43;100194.22;;;-1.13;74.16
68807;BME280;55800;54.272;18.558;2022-12-24T04:59:12;100188.09;;;-1.22;74.62
68807;BME280;55800;54.272;18.558;2022-12-24T05:01:43;100188.97;;;-1.23;75.01
68807;BME280;55800;54.272;18.558;2022-12-24T05:04:12;100179.38;;;-1.26;74.64
68807;BME280;55800;54.272;18.558;2022-12-24T05:06:41;100184.59;;;-1.26;74.69
68807;BME280;55800;54.272;18.558;2022-12-24T05:09:11;100187.22;;;-1.21;75.32
68807;BME280;55800;54.272;18.558;2022-12-24T05:11:41;100181.09;;;-1.17;75.19
68807;BME280;55800;54.272;18.558;2022-12-24T05:14:10;100183.72;;;-1.16;75.22
68807;BME280;55800;54.272;18.558;2022-12-24T05:16:39;100190.72;;;-1.13;75.61
68807;BME280;55800;54.272;18.558;2022-12-24T05:19:10;100191.56;;;-1.11;75.05
68807;BME280;55800;54.272;18.558;2022-12-24T05:21:39;100184.59;;;-1.11;75.12
68807;BME280;55800;54.272;18.558;2022-12-24T05:24:10;100188.94;;;-1.11;75.18
68807;BME280;55800;54.272;18.558;2022-12-24T05:26:58;100200.31;;;-1.08;75.61
68807;BME280;55800;54.272;18.558;2022-12-24T05:29:27;100215.19;;;-1.08;75.51
68807;BME280;55800;54.272;18.558;2022-12-24T05:31:56;100209.06;;;-1.07;75.41
68807;BME280;55800;54.272;18.558;2022-12-24T05:34:27;100203.81;;;-1.03;74.94
68807;BME280;55800;54.272;18.558;2022-12-24T05:36:56;100205.56;;;-1.05;75.31
68807;BME280;55800;54.272;18.558;2022-12-24T05:39:25;100217.78;;;-1.04;75.17
68807;BME280;55800;54.272;18.558;2022-12-24T05:41:54;100215.19;;;-1.02;75.09
68807;BME280;55800;54.272;18.558;2022-12-24T05:44:23;100221.31;;;-1.06;75.28
68807;BME280;55800;54.272;18.558;2022-12-24T05:46:53;100224.78;;;-1.06;75.40
68807;BME280;55800;54.272;18.558;2022-12-24T05:49:22;100218.66;;;-1.03;75.25
68807;BME280;55800;54.272;18.558;2022-12-24T05:51:52;100217.78;;;-0.96;74.95
68807;BME280;55800;54.272;18.558;2022-12-24T05:54:22;100216.03;;;-0.90;74.83
68807;BME280;55800;54.272;18.558;2022-12-24T05:56:51;100226.50;;;-0.93;74.75
68807;BME280;55800;54.272;18.558;2022-12-24T05:59:20;100232.63;;;-0.95;75.05
68807;BME280;55800;54.272;18.558;2022-12-24T06:01:49;100236.16;;;-0.96;74.87
68807;BME280;55800;54.272;18.558;2022-12-24T06:04:19;100235.28;;;-0.98;74.65
68807;BME280;55800;54.272;18.558;2022-12-24T06:06:57;100241.41;;;-1.02;74.79
68807;BME280;55800;54.272;18.558;2022-12-24T06:09:26;100236.16;;;-1.02;75.01
68807;BME280;55800;54.272;18.558;2022-12-24T06:11:55;100240.53;;;-1.01;74.64
68807;BME280;55800;54.272;18.558;2022-12-24T06:14:24;100241.41;;;-1.01;75.59
68807;BME280;55800;54.272;18.558;2022-12-24T06:16:53;100242.25;;;-0.99;74.81
68807;BME280;55800;54.272;18.558;2022-12-24T06:19:23;100244.03;;;-1.05;74.84
68807;BME280;55800;54.272;18.558;2022-12-24T06:21:52;100250.16;;;-1.06;75.26
68807;BME280;55800;54.272;18.558;2022-12-24T06:24:23;100252.75;;;-1.03;75.47
68807;BME280;55800;54.272;18.558;2022-12-24T06:26:52;100257.13;;;-0.93;75.29
68807;BME280;55800;54.272;18.558;2022-12-24T06:29:21;100258.88;;;-0.94;74.66
68807;BME280;55800;54.272;18.558;2022-12-24T06:31:54;100266.72;;;-0.91;74.10
68807;BME280;55800;54.272;18.558;2022-12-24T06:34:23;100265.84;;;-0.91;74.00
68807;BME280;55800;54.272;18.558;2022-12-24T06:36:52;100272.00;;;-0.94;74.23
68807;BME280;55800;54.272;18.558;2022-12-24T06:39:24;100271.97;;;-0.95;73.87
68807;BME280;55800;54.272;18.558;2022-12-24T06:41:53;100277.22;;;-1.00;73.99
68807;BME280;55800;54.272;18.558;2022-12-24T06:44:23;100274.66;;;-1.04;74.39
68807;BME280;55800;54.272;18.558;2022-12-24T06:46:53;100286.00;;;-1.08;74.28
68807;BME280;55800;54.272;18.558;2022-12-24T06:49:22;100292.13;;;-1.14;74.39
68807;BME280;55800;54.272;18.558;2022-12-24T06:51:51;100290.38;;;-1.09;73.94
68807;BME280;55800;54.272;18.558;2022-12-24T06:54:21;100295.59;;;-1.10;73.70
68807;BME280;55800;54.272;18.558;2022-12-24T06:56:51;100300.00;;;-1.17;73.85
68807;BME280;55800;54.272;18.558;2022-12-24T06:59:24;100300.00;;;-1.27;74.05
68807;BME280;55800;54.272;18.558;2022-12-24T07:01:54;100311.34;;;-1.37;74.45
68807;BME280;55800;54.272;18.558;2022-12-24T07:04:23;100313.97;;;-1.36;74.62
68807;BME280;55800;54.272;18.558;2022-12-24T07:06:52;100317.47;;;-1.37;74.55
68807;BME280;55800;54.272;18.558;2022-12-24T07:09:22;100324.44;;;-1.39;74.41
68807;BME280;55800;54.272;18.558;2022-12-24T07:11:52;100330.56;;;-1.44;74.53
68807;BME280;55800;54.272;18.558;2022-12-24T07:14:22;100332.31;;;-1.45;74.62
68807;BME280;55800;54.272;18.558;2022-12-24T07:16:51;100349.78;;;-1.45;74.59
68807;BME280;55800;54.272;18.558;2022-12-24T07:19:26;100345.41;;;-1.42;74.47
68807;BME280;55800;54.272;18.558;2022-12-24T07:21:55;100355.03;;;-1.41;74.71
68807;BME280;55800;54.272;18.558;2022-12-24T07:24:24;100350.66;;;-1.39;74.86
68807;BME280;55800;54.272;18.558;2022-12-24T07:26:55;100362.03;;;-1.37;75.39
68807;BME280;55800;54.272;18.558;2022-12-24T07:29:24;100358.56;;;-1.25;75.82
68807;BME280;55800;54.272;18.558;2022-12-24T07:31:53;100351.56;;;-1.16;76.97
68807;BME280;55800;54.272;18.558;2022-12-24T07:34:23;100344.59;;;-1.15;76.46
68807;BME280;55800;54.272;18.558;2022-12-24T07:36:52;100355.06;;;-1.09;76.18
68807;BME280;55800;54.272;18.558;2022-12-24T07:39:21;100366.47;;;-1.04;77.00
68807;BME280;55800;54.272;18.558;2022-12-24T07:41:51;100356.84;;;-1.02;76.43
68807;BME280;55800;54.272;18.558;2022-12-24T07:44:21;100372.56;;;-0.96;77.08
68807;BME280;55800;54.272;18.558;2022-12-24T07:46:51;100371.69;;;-0.85;76.87
68807;BME280;55800;54.272;18.558;2022-12-24T07:49:20;100376.06;;;-0.88;76.57
68807;BME280;55800;54.272;18.558;2022-12-24T07:51:49;100379.56;;;-0.86;76.28
68807;BME280;55800;54.272;18.558;2022-12-24T07:54:18;100388.31;;;-0.90;76.93
68807;BME280;55800;54.272;18.558;2022-12-24T07:56:47;100398.81;;;-0.87;76.50
68807;BME280;55800;54.272;18.558;2022-12-24T07:59:16;100391.81;;;-0.85;76.24
68807;BME280;55800;54.272;18.558;2022-12-24T08:01:47;100379.56;;;-0.74;76.46
68807;BME280;55800;54.272;18.558;2022-12-24T08:04:17;100396.19;;;-0.66;76.41
68807;BME280;55800;54.272;18.558;2022-12-24T08:06:46;100402.31;;;-0.67;75.92
68807;BME280;55800;54.272;18.558;2022-12-24T08:09:15;100397.94;;;-0.65;76.39
68807;BME280;55800;54.272;18.558;2022-12-24T08:11:44;100401.44;;;-0.61;75.97
68807;BME280;55800;54.272;18.558;2022-12-24T08:14:19;100405.81;;;-0.59;76.10
68807;BME280;55800;54.272;18.558;2022-12-24T08:16:50;100405.81;;;-0.62;75.98
68807;BME280;55800;54.272;18.558;2022-12-24T08:19:20;100412.81;;;-0.58;75.58
68807;BME280;55800;54.272;18.558;2022-12-24T08:21:49;100412.81;;;-0.61;75.60
68807;BME280;55800;54.272;18.558;2022-12-24T08:24:19;100410.19;;;-0.55;75.29
68807;BME280;55800;54.272;18.558;2022-12-24T08:26:48;100418.06;;;-0.49;75.30
68807;BME280;55800;54.272;18.558;2022-12-24T08:29:17;100419.81;;;-0.48;75.45
68807;BME280;55800;54.272;18.558;2022-12-24T08:31:46;100415.44;;;-0.46;75.70
68807;BME280;55800;54.272;18.558;2022-12-24T08:34:17;100421.56;;;-0.47;76.14
68807;BME280;55800;54.272;18.558;2022-12-24T08:36:46;100426.81;;;-0.48;76.04
68807;BME280;55800;54.272;18.558;2022-12-24T08:39:15;100428.56;;;-0.46;77.58
68807;BME280;55800;54.272;18.558;2022-12-24T08:41:45;100430.28;;;-0.36;77.88
68807;BME280;55800;54.272;18.558;2022-12-24T08:44:14;100430.31;;;-0.30;77.45
68807;BME280;55800;54.272;18.558;2022-12-24T08:46:43;100438.19;;;-0.30;77.01
68807;BME280;55800;54.272;18.558;2022-12-24T08:49:13;100440.81;;;-0.30;76.92
68807;BME280;55800;54.272;18.558;2022-12-24T08:51:44;100443.44;;;-0.28;76.68
68807;BME280;55800;54.272;18.558;2022-12-24T08:54:13;100439.06;;;-0.22;77.10
68807;BME280;55800;54.272;18.558;2022-12-24T08:56:43;100451.28;;;-0.15;77.10
68807;BME280;55800;54.272;18.558;2022-12-24T08:59:12;100448.66;;;-0.13;76.27
68807;BME280;55800;54.272;18.558;2022-12-24T09:01:41;100457.44;;;-0.11;76.47
68807;BME280;55800;54.272;18.558;2022-12-24T09:04:10;100452.16;;;-0.11;76.81
68807;BME280;55800;54.272;18.558;2022-12-24T09:06:40;100456.53;;;-0.10;76.50
68807;BME280;55800;54.272;18.558;2022-12-24T09:09:10;100455.66;;;-0.08;76.69
68807;BME280;55800;54.272;18.558;2022-12-24T09:11:40;100459.16;;;-0.06;76.64
68807;BME280;55800;54.272;18.558;2022-12-24T09:14:09;100456.50;;;-0.04;76.70
68807;BME280;55800;54.272;18.558;2022-12-24T09:16:38;100464.41;;;-0.03;76.61
68807;BME280;55800;54.272;18.558;2022-12-24T09:19:07;100468.78;;;-0.02;76.50
68807;BME280;55800;54.272;18.558;2022-12-24T09:21:37;100469.66;;;0.04;76.81
68807;BME280;55800;54.272;18.558;2022-12-24T09:24:07;100473.13;;;0.16;76.64
68807;BME280;55800;54.272;18.558;2022-12-24T09:26:40;100470.50;;;0.18;76.19
68807;BME280;55800;54.272;18.558;2022-12-24T09:29:10;100474.00;;;0.20;76.10
68807;BME280;55800;54.272;18.558;2022-12-24T09:31:39;100482.75;;;0.25;76.24
68807;BME280;55800;54.272;18.558;2022-12-24T09:34:08;100487.09;;;0.36;76.68
68807;BME280;55800;54.272;18.558;2022-12-24T09:36:38;100485.34;;;0.40;76.78
68807;BME280;55800;54.272;18.558;2022-12-24T09:39:07;100496.72;;;0.46;76.13
68807;BME280;55800;54.272;18.558;2022-12-24T09:41:44;100498.47;;;0.46;76.42
68807;BME280;55800;54.272;18.558;2022-12-24T09:44:23;100505.47;;;0.53;75.98
68807;BME280;55800;54.272;18.558;2022-12-24T09:47:00;100501.03;;;0.58;75.96
68807;BME280;55800;54.272;18.558;2022-12-24T09:49:39;100508.06;;;0.59;76.39
68807;BME280;55800;54.272;18.558;2022-12-24T09:52:13;100515.06;;;0.64;76.64
68807;BME280;55800;54.272;18.558;2022-12-24T09:54:45;100504.50;;;0.69;76.24
68807;BME280;55800;54.272;18.558;2022-12-24T09:57:24;100498.41;;;0.70;76.21
68807;BME280;55800;54.272;18.558;2022-12-24T09:59:55;100500.97;;;0.74;76.18
68807;BME280;55800;54.272;18.558;2022-12-24T10:02:24;100501.00;;;0.76;76.26
68807;BME280;55800;54.272;18.558;2022-12-24T10:04:54;100502.75;;;0.75;76.64
68807;BME280;55800;54.272;18.558;2022-12-24T10:07:30;100505.31;;;0.86;76.57
68807;BME280;55800;54.272;18.558;2022-12-24T10:10:13;100507.06;;;0.90;76.45
68807;BME280;55800;54.272;18.558;2022-12-24T10:12:53;100519.34;;;0.91;76.73
68807;BME280;55800;54.272;18.558;2022-12-24T10:15:29;100507.91;;;0.89;77.16
68807;BME280;55800;54.272;18.558;2022-12-24T10:18:12;100514.09;;;0.91;77.31
68807;BME280;55800;54.272;18.558;2022-12-24T10:20:51;100518.44;;;0.95;77.48
68807;BME280;55800;54.272;18.558;2022-12-24T10:23:27;100524.53;;;1.00;77.38
68807;BME280;55800;54.272;18.558;2022-12-24T10:26:07;100523.63;;;1.07;77.60
68807;BME280;55800;54.272;18.558;2022-12-24T10:28:45;100532.38;;;1.14;77.65
68807;BME280;55800;54.272;18.558;2022-12-24T10:31:15;100532.38;;;1.18;77.71
68807;BME280;55800;54.272;18.558;2022-12-24T10:33:51;100527.03;;;1.26;77.85
68807;BME280;55800;54.272;18.558;2022-12-24T10:36:25;100537.53;;;1.32;77.79
68807;BME280;55800;54.272;18.558;2022-12-24T10:38:56;100531.38;;;1.37;77.95
68807;BME280;55800;54.272;18.558;2022-12-24T10:41:27;100526.06;;;1.43;77.86
68807;BME280;55800;54.272;18.558;2022-12-24T10:43:59;100533.91;;;1.49;77.79
68807;BME280;55800;54.272;18.558;2022-12-24T10:46:32;100536.50;;;1.55;77.68
68807;BME280;55800;54.272;18.558;2022-12-24T10:49:05;100538.22;;;1.63;78.35
68807;BME280;55800;54.272;18.558;2022-12-24T10:51:39;100544.34;;;1.69;77.68
68807;BME280;55800;54.272;18.558;2022-12-24T10:54:12;100535.50;;;1.73;78.01
68807;BME280;55800;54.272;18.558;2022-12-24T10:56:57;100540.72;;;1.79;77.73
68807;BME280;55800;54.272;18.558;2022-12-24T10:59:30;100545.97;;;1.84;77.52
68807;BME280;55800;54.272;18.558;2022-12-24T11:02:02;100551.22;;;1.88;77.47
68807;BME280;55800;54.272;18.558;2022-12-24T11:04:32;100543.28;;;1.93;77.63
68807;BME280;55800;54.272;18.558;2022-12-24T11:07:19;100551.13;;;1.97;78.05
68807;BME280;55800;54.272;18.558;2022-12-24T11:09:55;100551.09;;;2.03;77.81
68807;BME280;55800;54.272;18.558;2022-12-24T11:12:27;100558.09;;;2.07;77.63
68807;BME280;55800;54.272;18.558;2022-12-24T11:15:02;100547.50;;;2.10;77.86
68807;BME280;55800;54.272;18.558;2022-12-24T11:17:37;100563.31;;;2.13;77.86
68807;BME280;55800;54.272;18.558;2022-12-24T11:20:14;100563.25;;;2.16;78.04
68807;BME280;55800;54.272;18.558;2022-12-24T11:22:48;100563.25;;;2.18;77.76
68807;BME280;55800;54.272;18.558;2022-12-24T11:25:21;100565.84;;;2.21;77.70
68807;BME280;55800;54.272;18.558;2022-12-24T11:27:51;100566.72;;;2.23;77.56
68807;BME280;55800;54.272;18.558;2022-12-24T11:30:28;100560.50;;;2.27;77.67
68807;BME280;55800;54.272;18.558;2022-12-24T11:33:23;100566.69;;;2.29;77.54
68807;BME280;55800;54.272;18.558;2022-12-24T11:36:04;100581.59;;;2.30;77.47
68807;BME280;55800;54.272;18.558;2022-12-24T11:38:34;100583.38;;;2.31;77.26
68807;BME280;55800;54.272;18.558;2022-12-24T11:41:10;100583.38;;;2.31;77.42
68807;BME280;55800;54.272;18.558;2022-12-24T11:43:42;100583.31;;;2.34;77.19
68807;BME280;55800;54.272;18.558;2022-12-24T11:46:20;100590.34;;;2.33;77.34
68807;BME280;55800;54.272;18.558;2022-12-24T11:52:18;100603.56;;;2.35;77.31
68807;BME280;55800;54.272;18.558;2022-12-24T11:55:00;100605.28;;;2.36;77.08
68807;BME280;55800;54.272;18.558;2022-12-24T11:57:49;100608.81;;;2.36;77.06
68807;BME280;55800;54.272;18.558;2022-12-24T12:00:21;100609.69;;;2.37;77.10
68807;BME280;55800;54.272;18.558;2022-12-24T12:02:57;100607.91;;;2.39;77.11
68807;BME280;55800;54.272;18.558;2022-12-24T12:05:31;100619.31;;;2.41;77.11
68807;BME280;55800;54.272;18.558;2022-12-24T12:08:09;100618.41;;;2.42;77.17
68807;BME280;55800;54.272;18.558;2022-12-24T12:10:42;100621.06;;;2.44;77.17
68807;BME280;55800;54.272;18.558;2022-12-24T12:13:15;100615.75;;;2.45;77.25
68807;BME280;55800;54.272;18.558;2022-12-24T12:15:47;100621.00;;;2.47;77.21
68807;BME280;55800;54.272;18.558;2022-12-24T12:18:21;100619.25;;;2.49;77.28
68807;BME280;55800;54.272;18.558;2022-12-24T12:20:55;100625.38;;;2.51;77.19
68807;BME280;55800;54.272;18.558;2022-12-24T12:23:31;100626.22;;;2.56;77.22
68807;BME280;55800;54.272;18.558;2022-12-24T12:26:08;100632.34;;;2.61;76.91
68807;BME280;55800;54.272;18.558;2022-12-24T12:28:42;100631.41;;;2.65;76.79
68807;BME280;55800;54.272;18.558;2022-12-24T12:31:18;100632.28;;;2.65;77.03
68807;BME280;55800;54.272;18.558;2022-12-24T12:33:54;100617.31;;;2.66;76.62
68807;BME280;55800;54.272;18.558;2022-12-24T12:36:30;100634.88;;;2.70;76.81
68807;BME280;55800;54.272;18.558;2022-12-24T12:39:00;100627.88;;;2.66;77.03
68807;BME280;55800;54.272;18.558;2022-12-24T12:41:44;100635.81;;;2.64;77.16
68807;BME280;55800;54.272;18.558;2022-12-24T12:44:38;100642.75;;;2.74;76.75
68807;BME280;55800;54.272;18.558;2022-12-24T12:47:26;100649.78;;;2.75;76.64
68807;BME280;55800;54.272;18.558;2022-12-24T12:50:08;100653.28;;;2.76;76.45
68807;BME280;55800;54.272;18.558;2022-12-24T12:52:53;100672.69;;;2.73;76.59
68807;BME280;55800;54.272;18.558;2022-12-24T12:55:35;100666.56;;;2.71;76.73
68807;BME280;55800;54.272;18.558;2022-12-24T12:58:16;100675.34;;;2.70;76.56
68807;BME280;55800;54.272;18.558;2022-12-24T13:00:50;100674.47;;;2.71;76.47
68807;BME280;55800;54.272;18.558;2022-12-24T13:06:49;100674.47;;;2.71;76.35
68807;BME280;55800;54.272;18.558;2022-12-24T13:09:50;100677.09;;;2.71;75.99
68807;BME280;55800;54.272;18.558;2022-12-24T13:12:37;100686.81;;;2.66;76.17
68807;BME280;55800;54.272;18.558;2022-12-24T13:15:34;100686.81;;;2.66;76.07
68807;BME280;55800;54.272;18.558;2022-12-24T13:18:25;100687.69;;;2.67;75.91
68807;BME280;55800;54.272;18.558;2022-12-24T13:20:57;100700.88;;;2.68;75.87